sensor_id;sensor_type;location;lat;lon;timestamp;pressure;altitude;pressure_sealevel;temperature;humidity
30708;BME280;17458;48.958;8.284;2022-09-19T00:01:09;100479.94;;;12.69;75.48
30708;BME280;17458;48.958;8.284;2022-09-19T00:03:59;100475.91;;;12.58;75.04
30708;BME280;17458;48.958;8.284;2022-09-19T00:06:45;100474.03;;;12.36;75.95
30708;BME280;17458;48.958;8.284;2022-09-19T00:09:31;100481.72;;;12.29;75.96
30708;BME280;17458;48.958;8.284;2022-09-19T00:12:15;100482.25;;;12.22;76.15
30708;BME280;17458;48.958;8.284;2022-09-19T00:14:59;100484.28;;;12.27;76.08
30708;BME280;17458;48.958;8.284;2022-09-19T00:17:43;100481.00;;;12.14;75.93
30708;BME280;17458;48.958;8.284;2022-09-19T00:20:27;100485.63;;;11.98;76.49
30708;BME280;17458;48.958;8.284;2022-09-19T00:23:12;100493.13;;;11.88;77.37
30708;BME280;17458;48.958;8.284;2022-09-19T00:26:15;100490.19;;;11.64;78.54
30708;BME280;17458;48.958;8.284;2022-09-19T00:29:04;100485.16;;;11.52;79.15
30708;BME280;17458;48.958;8.284;2022-09-19T00:31:47;100479.06;;;11.35;79.72
30708;BME280;17458;48.958;8.284;2022-09-19T00:34:31;100478.66;;;11.46;79.40
30708;BME280;17458;48.958;8.284;2022-09-19T00:37:18;100481.31;;;11.46;79.55
30708;BME280;17458;48.958;8.284;2022-09-19T00:40:03;100488.66;;;11.51;78.87
30708;BME280;17458;48.958;8.284;2022-09-19T00:42:47;100485.56;;;11.42;79.20
30708;BME280;17458;48.958;8.284;2022-09-19T00:45:31;100501.38;;;11.39;78.77
30708;BME280;17458;48.958;8.284;2022-09-19T00:48:18;100507.53;;;11.38;78.76
30708;BME280;17458;48.958;8.284;2022-09-19T00:51:03;100519.53;;;11.30;78.67
30708;BME280;17458;48.958;8.284;2022-09-19T00:53:48;100533.81;;;11.32;78.65
30708;BME280;17458;48.958;8.284;2022-09-19T00:56:33;100519.91;;;11.37;77.92
30708;BME280;17458;48.958;8.284;2022-09-19T00:59:20;100519.78;;;11.34;78.32
30708;BME280;17458;48.958;8.284;2022-09-19T01:02:07;100518.63;;;11.29;78.62
30708;BME280;17458;48.958;8.284;2022-09-19T01:04:52;100518.63;;;11.29;78.31
30708;BME280;17458;48.958;8.284;2022-09-19T01:08:00;100513.75;;;11.38;78.15
30708;BME280;17458;48.958;8.284;2022-09-19T01:13:56;100520.97;;;11.23;77.44
30708;BME280;17458;48.958;8.284;2022-09-19T01:16:50;100528.19;;;11.26;76.58
30708;BME280;17458;48.958;8.284;2022-09-19T01:23:09;100528.06;;;11.23;76.09
30708;BME280;17458;48.958;8.284;2022-09-19T01:29:24;100538.59;;;11.04;76.43
30708;BME280;17458;48.958;8.284;2022-09-19T01:32:14;100543.56;;;10.97;76.36
30708;BME280;17458;48.958;8.284;2022-09-19T01:35:02;100547.16;;;10.98;76.17
30708;BME280;17458;48.958;8.284;2022-09-19T01:37:56;100544.91;;;11.06;76.45
30708;BME280;17458;48.958;8.284;2022-09-19T01:40:44;100550.41;;;10.92;76.78
30708;BME280;17458;48.958;8.284;2022-09-19T01:43:29;100548.31;;;11.03;76.23
30708;BME280;17458;48.958;8.284;2022-09-19T01:46:33;100546.22;;;10.97;75.85
30708;BME280;17458;48.958;8.284;2022-09-19T01:56:48;100561.56;;;10.85;77.01
30708;BME280;17458;48.958;8.284;2022-09-19T01:59:42;100561.72;;;10.88;77.48
30708;BME280;17458;48.958;8.284;2022-09-19T02:02:55;100557.97;;;10.85;78.07
30708;BME280;17458;48.958;8.284;2022-09-19T02:09:06;100554.22;;;10.97;77.54
30708;BME280;17458;48.958;8.284;2022-09-19T02:12:03;100559.72;;;10.84;77.45
30708;BME280;17458;48.958;8.284;2022-09-19T02:14:52;100559.22;;;10.91;76.97
30708;BME280;17458;48.958;8.284;2022-09-19T02:17:43;100555.19;;;10.99;76.77
30708;BME280;17458;48.958;8.284;2022-09-19T02:20:37;100556.03;;;10.98;76.98
30708;BME280;17458;48.958;8.284;2022-09-19T02:23:27;100557.03;;;11.00;76.91
30708;BME280;17458;48.958;8.284;2022-09-19T02:26:11;100558.28;;;11.07;76.70
30708;BME280;17458;48.958;8.284;2022-09-19T02:29:01;100564.16;;;11.01;76.76
30708;BME280;17458;48.958;8.284;2022-09-19T02:31:49;100569.31;;;10.98;76.76
30708;BME280;17458;48.958;8.284;2022-09-19T02:34:33;100563.28;;;10.85;77.45
30708;BME280;17458;48.958;8.284;2022-09-19T02:40:23;100570.69;;;10.90;77.66
30708;BME280;17458;48.958;8.284;2022-09-19T02:44:13;100576.66;;;10.86;78.17
30708;BME280;17458;48.958;8.284;2022-09-19T02:52:30;100573.03;;;10.68;79.25
30708;BME280;17458;48.958;8.284;2022-09-19T02:55:24;100572.91;;;10.83;78.46
30708;BME280;17458;48.958;8.284;2022-09-19T02:58:10;100573.00;;;10.84;78.15
30708;BME280;17458;48.958;8.284;2022-09-19T03:01:04;100575.91;;;10.89;77.89
30708;BME280;17458;48.958;8.284;2022-09-19T03:03:54;100583.22;;;10.93;77.48
30708;BME280;17458;48.958;8.284;2022-09-19T03:07:22;100582.38;;;10.94;77.76
30708;BME280;17458;48.958;8.284;2022-09-19T03:10:21;100587.84;;;10.97;77.31
30708;BME280;17458;48.958;8.284;2022-09-19T03:13:11;100587.16;;;11.01;76.79
30708;BME280;17458;48.958;8.284;2022-09-19T03:16:22;100594.06;;;10.97;77.12
30708;BME280;17458;48.958;8.284;2022-09-19T03:19:09;100590.41;;;10.95;77.40
30708;BME280;17458;48.958;8.284;2022-09-19T03:21:54;100595.34;;;10.88;77.39
30708;BME280;17458;48.958;8.284;2022-09-19T03:24:38;100600.94;;;10.76;77.96
30708;BME280;17458;48.958;8.284;2022-09-19T03:27:23;100598.19;;;10.58;78.83
30708;BME280;17458;48.958;8.284;2022-09-19T03:30:11;100593.16;;;10.63;79.48
30708;BME280;17458;48.958;8.284;2022-09-19T03:32:58;100585.84;;;10.59;79.29
30708;BME280;17458;48.958;8.284;2022-09-19T03:35:43;100594.28;;;10.68;79.04
30708;BME280;17458;48.958;8.284;2022-09-19T03:38:31;100599.38;;;10.63;79.50
30708;BME280;17458;48.958;8.284;2022-09-19T03:41:19;100598.63;;;10.66;79.79
30708;BME280;17458;48.958;8.284;2022-09-19T03:44:03;100603.19;;;10.52;80.10
30708;BME280;17458;48.958;8.284;2022-09-19T03:46:49;100603.75;;;10.63;79.68
30708;BME280;17458;48.958;8.284;2022-09-19T03:49:33;100602.75;;;10.45;79.87
30708;BME280;17458;48.958;8.284;2022-09-19T03:52:18;100607.66;;;10.53;80.04
30708;BME280;17458;48.958;8.284;2022-09-19T03:55:02;100614.13;;;10.58;79.52
30708;BME280;17458;48.958;8.284;2022-09-19T03:57:52;100620.63;;;10.47;79.76
30708;BME280;17458;48.958;8.284;2022-09-19T04:00:38;100622.34;;;10.47;79.71
30708;BME280;17458;48.958;8.284;2022-09-19T04:03:22;100635.94;;;10.53;80.03
30708;BME280;17458;48.958;8.284;2022-09-19T04:06:09;100631.53;;;10.53;80.57
30708;BME280;17458;48.958;8.284;2022-09-19T04:08:54;100632.16;;;10.48;81.28
30708;BME280;17458;48.958;8.284;2022-09-19T04:11:38;100629.41;;;10.15;83.51
30708;BME280;17458;48.958;8.284;2022-09-19T04:14:25;100629.31;;;10.14;84.22
30708;BME280;17458;48.958;8.284;2022-09-19T04:17:10;100624.91;;;10.29;84.09
30708;BME280;17458;48.958;8.284;2022-09-19T04:19:58;100642.34;;;10.24;84.11
30708;BME280;17458;48.958;8.284;2022-09-19T04:22:58;100644.41;;;10.46;83.21
30708;BME280;17458;48.958;8.284;2022-09-19T04:26:14;100647.47;;;10.21;83.78
30708;BME280;17458;48.958;8.284;2022-09-19T04:29:00;100647.88;;;10.28;83.14
30708;BME280;17458;48.958;8.284;2022-09-19T04:31:46;100652.03;;;10.40;82.84
30708;BME280;17458;48.958;8.284;2022-09-19T04:34:30;100650.56;;;10.45;82.35
30708;BME280;17458;48.958;8.284;2022-09-19T04:37:14;100653.03;;;10.42;82.30
30708;BME280;17458;48.958;8.284;2022-09-19T04:40:00;100657.34;;;10.40;82.47
30708;BME280;17458;48.958;8.284;2022-09-19T04:42:46;100667.91;;;10.38;82.07
30708;BME280;17458;48.958;8.284;2022-09-19T04:45:31;100663.09;;;10.47;81.24
30708;BME280;17458;48.958;8.284;2022-09-19T04:48:29;100666.22;;;10.24;82.37
30708;BME280;17458;48.958;8.284;2022-09-19T04:51:14;100665.47;;;10.26;83.27
30708;BME280;17458;48.958;8.284;2022-09-19T04:53:58;100672.09;;;10.18;84.66
30708;BME280;17458;48.958;8.284;2022-09-19T04:56:44;100678.25;;;10.34;84.21
30708;BME280;17458;48.958;8.284;2022-09-19T04:59:30;100671.47;;;10.39;84.68
30708;BME280;17458;48.958;8.284;2022-09-19T05:02:14;100674.50;;;10.30;84.93
30708;BME280;17458;48.958;8.284;2022-09-19T05:04:58;100673.97;;;10.36;84.61
30708;BME280;17458;48.958;8.284;2022-09-19T05:07:45;100669.00;;;10.58;83.04
30708;BME280;17458;48.958;8.284;2022-09-19T05:10:32;100679.34;;;10.53;83.17
30708;BME280;17458;48.958;8.284;2022-09-19T05:13:16;100683.19;;;10.58;83.40
30708;BME280;17458;48.958;8.284;2022-09-19T05:16:01;100682.75;;;10.67;82.80
30708;BME280;17458;48.958;8.284;2022-09-19T05:18:48;100697.81;;;10.67;83.08
30708;BME280;17458;48.958;8.284;2022-09-19T05:21:34;100685.50;;;10.85;82.43
30708;BME280;17458;48.958;8.284;2022-09-19T05:24:20;100698.44;;;10.95;82.62
30708;BME280;17458;48.958;8.284;2022-09-19T05:27:04;100693.16;;;10.79;83.70
30708;BME280;17458;48.958;8.284;2022-09-19T05:29:49;100704.84;;;10.82;83.73
30708;BME280;17458;48.958;8.284;2022-09-19T05:32:37;100701.03;;;10.77;84.29
30708;BME280;17458;48.958;8.284;2022-09-19T05:35:36;100703.09;;;10.99;83.52
30708;BME280;17458;48.958;8.284;2022-09-19T05:38:41;100714.47;;;10.96;83.83
30708;BME280;17458;48.958;8.284;2022-09-19T05:41:52;100721.88;;;11.18;83.07
30708;BME280;17458;48.958;8.284;2022-09-19T05:44:38;100722.44;;;11.29;82.65
30708;BME280;17458;48.958;8.284;2022-09-19T05:47:23;100720.03;;;11.33;82.57
30708;BME280;17458;48.958;8.284;2022-09-19T05:50:11;100714.78;;;11.35;82.86
30708;BME280;17458;48.958;8.284;2022-09-19T05:52:55;100725.34;;;11.33;82.15
30708;BME280;17458;48.958;8.284;2022-09-19T05:55:59;100725.50;;;11.36;82.17
30708;BME280;17458;48.958;8.284;2022-09-19T05:58:46;100721.78;;;11.17;83.61
30708;BME280;17458;48.958;8.284;2022-09-19T06:01:30;100726.00;;;11.29;83.27
30708;BME280;17458;48.958;8.284;2022-09-19T06:04:15;100722.06;;;11.39;83.05
30708;BME280;17458;48.958;8.284;2022-09-19T06:06:59;100727.28;;;11.54;81.81
30708;BME280;17458;48.958;8.284;2022-09-19T06:09:45;100730.78;;;11.53;81.71
30708;BME280;17458;48.958;8.284;2022-09-19T06:12:30;100727.25;;;11.36;82.43
30708;BME280;17458;48.958;8.284;2022-09-19T06:15:14;100739.00;;;11.57;81.95
30708;BME280;17458;48.958;8.284;2022-09-19T06:17:59;100738.97;;;11.73;81.17
30708;BME280;17458;48.958;8.284;2022-09-19T06:21:00;100744.72;;;11.65;81.80
30708;BME280;17458;48.958;8.284;2022-09-19T06:23:47;100748.13;;;11.79;80.96
30708;BME280;17458;48.958;8.284;2022-09-19T06:26:34;100751.56;;;11.60;82.02
30708;BME280;17458;48.958;8.284;2022-09-19T06:29:18;100754.22;;;11.94;81.31
30708;BME280;17458;48.958;8.284;2022-09-19T06:32:19;100759.72;;;12.15;80.04
30708;BME280;17458;48.958;8.284;2022-09-19T06:35:05;100757.41;;;12.22;79.81
30708;BME280;17458;48.958;8.284;2022-09-19T06:37:57;100755.50;;;12.37;79.15
30708;BME280;17458;48.958;8.284;2022-09-19T06:40:42;100766.47;;;12.26;79.59
30708;BME280;17458;48.958;8.284;2022-09-19T06:43:56;100756.38;;;12.19;79.41
30708;BME280;17458;48.958;8.284;2022-09-19T06:47:13;100767.72;;;12.32;78.99
30708;BME280;17458;48.958;8.284;2022-09-19T06:50:04;100771.56;;;12.21;78.50
30708;BME280;17458;48.958;8.284;2022-09-19T06:52:50;100774.94;;;12.17;78.79
30708;BME280;17458;48.958;8.284;2022-09-19T06:55:35;100777.38;;;12.30;78.89
30708;BME280;17458;48.958;8.284;2022-09-19T06:58:23;100775.31;;;12.60;78.01
30708;BME280;17458;48.958;8.284;2022-09-19T07:01:10;100780.19;;;12.88;76.64
30708;BME280;17458;48.958;8.284;2022-09-19T07:03:55;100781.47;;;12.96;76.08
30708;BME280;17458;48.958;8.284;2022-09-19T07:06:49;100778.16;;;12.65;76.71
30708;BME280;17458;48.958;8.284;2022-09-19T07:09:33;100786.91;;;12.80;76.38
30708;BME280;17458;48.958;8.284;2022-09-19T07:12:18;100792.63;;;12.70;76.84
30708;BME280;17458;48.958;8.284;2022-09-19T07:15:04;100789.94;;;12.88;76.03
30708;BME280;17458;48.958;8.284;2022-09-19T07:17:53;100791.88;;;12.72;76.40
30708;BME280;17458;48.958;8.284;2022-09-19T07:20:37;100792.72;;;12.54;77.28
30708;BME280;17458;48.958;8.284;2022-09-19T07:23:41;100798.13;;;12.73;77.16
30708;BME280;17458;48.958;8.284;2022-09-19T07:26:36;100792.53;;;12.86;76.42
30708;BME280;17458;48.958;8.284;2022-09-19T07:29:22;100804.56;;;12.78;77.22
30708;BME280;17458;48.958;8.284;2022-09-19T07:32:06;100802.97;;;12.64;76.67
30708;BME280;17458;48.958;8.284;2022-09-19T07:34:53;100812.03;;;12.85;76.92
30708;BME280;17458;48.958;8.284;2022-09-19T07:37:36;100814.75;;;13.04;75.89
30708;BME280;17458;48.958;8.284;2022-09-19T07:40:41;100817.19;;;13.00;75.93
30708;BME280;17458;48.958;8.284;2022-09-19T07:43:37;100820.75;;;13.00;75.89
30708;BME280;17458;48.958;8.284;2022-09-19T07:46:35;100815.53;;;13.21;75.63
30708;BME280;17458;48.958;8.284;2022-09-19T07:49:25;100828.41;;;13.30;73.77
30708;BME280;17458;48.958;8.284;2022-09-19T07:52:31;100828.91;;;13.03;74.38
30708;BME280;17458;48.958;8.284;2022-09-19T07:55:15;100837.19;;;13.09;74.78
30708;BME280;17458;48.958;8.284;2022-09-19T07:58:01;100837.81;;;13.41;73.68
30708;BME280;17458;48.958;8.284;2022-09-19T08:01:01;100834.47;;;13.45;73.35
30708;BME280;17458;48.958;8.284;2022-09-19T08:04:06;100843.78;;;13.55;73.42
30708;BME280;17458;48.958;8.284;2022-09-19T08:07:05;100849.34;;;13.59;72.48
30708;BME280;17458;48.958;8.284;2022-09-19T08:09:50;100847.78;;;13.64;72.54
30708;BME280;17458;48.958;8.284;2022-09-19T08:12:53;100854.75;;;13.61;72.44
30708;BME280;17458;48.958;8.284;2022-09-19T08:15:37;100858.66;;;13.69;72.02
30708;BME280;17458;48.958;8.284;2022-09-19T08:18:23;100865.31;;;13.98;71.26
30708;BME280;17458;48.958;8.284;2022-09-19T08:21:10;100864.56;;;13.62;71.46
30708;BME280;17458;48.958;8.284;2022-09-19T08:23:54;100866.47;;;13.83;71.71
30708;BME280;17458;48.958;8.284;2022-09-19T08:26:39;100871.50;;;13.97;71.20
30708;BME280;17458;48.958;8.284;2022-09-19T08:29:25;100860.66;;;13.94;71.59
30708;BME280;17458;48.958;8.284;2022-09-19T08:32:25;100859.34;;;14.03;72.10
30708;BME280;17458;48.958;8.284;2022-09-19T08:35:10;100858.13;;;14.16;71.24
30708;BME280;17458;48.958;8.284;2022-09-19T08:37:57;100858.44;;;14.03;70.22
30708;BME280;17458;48.958;8.284;2022-09-19T08:40:46;100867.91;;;14.15;70.42
30708;BME280;17458;48.958;8.284;2022-09-19T08:49:46;100871.59;;;14.19;70.30
30708;BME280;17458;48.958;8.284;2022-09-19T08:52:47;100876.00;;;14.18;69.23
30708;BME280;17458;48.958;8.284;2022-09-19T08:55:40;100870.88;;;14.42;68.57
30708;BME280;17458;48.958;8.284;2022-09-19T08:58:34;100877.94;;;14.63;68.08
30708;BME280;17458;48.958;8.284;2022-09-19T09:01:35;100884.47;;;14.48;67.62
30708;BME280;17458;48.958;8.284;2022-09-19T09:04:56;100887.03;;;14.66;66.85
30708;BME280;17458;48.958;8.284;2022-09-19T09:11:39;100878.88;;;15.06;66.38
30708;BME280;17458;48.958;8.284;2022-09-19T09:15:42;100889.81;;;15.12;66.08
30708;BME280;17458;48.958;8.284;2022-09-19T09:18:17;100892.53;;;14.92;66.16
30708;BME280;17458;48.958;8.284;2022-09-19T09:21:17;100891.03;;;14.98;65.80
30708;BME280;17458;48.958;8.284;2022-09-19T09:24:14;100886.03;;;15.07;66.00
30708;BME280;17458;48.958;8.284;2022-09-19T09:27:28;100890.53;;;15.08;66.01
30708;BME280;17458;48.958;8.284;2022-09-19T09:30:20;100892.13;;;15.25;66.28
30708;BME280;17458;48.958;8.284;2022-09-19T09:33:19;100881.84;;;15.58;64.82
30708;BME280;17458;48.958;8.284;2022-09-19T09:36:11;100889.97;;;15.84;62.84
30708;BME280;17458;48.958;8.284;2022-09-19T09:39:11;100883.41;;;15.76;64.26
30708;BME280;17458;48.958;8.284;2022-09-19T09:41:59;100882.38;;;15.96;63.85
30708;BME280;17458;48.958;8.284;2022-09-19T09:45:07;100877.75;;;15.92;64.57
30708;BME280;17458;48.958;8.284;2022-09-19T09:48:24;100883.44;;;16.01;65.20
30708;BME280;17458;48.958;8.284;2022-09-19T09:51:38;100875.28;;;16.22;64.55
30708;BME280;17458;48.958;8.284;2022-09-19T10:00:43;100879.00;;;16.25;62.07
30708;BME280;17458;48.958;8.284;2022-09-19T10:03:53;100875.59;;;16.31;62.03
30708;BME280;17458;48.958;8.284;2022-09-19T10:10:11;100872.38;;;16.16;62.86
30708;BME280;17458;48.958;8.284;2022-09-19T10:13:02;100870.47;;;16.12;61.42
30708;BME280;17458;48.958;8.284;2022-09-19T10:15:56;100881.81;;;16.81;60.68
30708;BME280;17458;48.958;8.284;2022-09-19T10:18:53;100873.91;;;17.12;59.78
30708;BME280;17458;48.958;8.284;2022-09-19T10:21:40;100875.25;;;16.73;61.09
30708;BME280;17458;48.958;8.284;2022-09-19T10:24:57;100868.38;;;17.36;59.96
30708;BME280;17458;48.958;8.284;2022-09-19T10:27:47;100873.91;;;16.85;59.63
30708;BME280;17458;48.958;8.284;2022-09-19T10:30:57;100869.81;;;16.96;60.78
30708;BME280;17458;48.958;8.284;2022-09-19T10:33:45;100874.69;;;17.65;59.25
30708;BME280;17458;48.958;8.284;2022-09-19T10:36:44;100879.03;;;17.33;58.67
30708;BME280;17458;48.958;8.284;2022-09-19T10:39:30;100870.97;;;17.33;58.60
30708;BME280;17458;48.958;8.284;2022-09-19T10:45:26;100870.97;;;18.23;57.12
30708;BME280;17458;48.958;8.284;2022-09-19T10:48:21;100866.31;;;18.17;56.97
30708;BME280;17458;48.958;8.284;2022-09-19T10:51:11;100862.56;;;18.12;56.46
30708;BME280;17458;48.958;8.284;2022-09-19T10:53:57;100856.38;;;18.82;55.41
30708;BME280;17458;48.958;8.284;2022-09-19T10:56:45;100873.31;;;18.76;54.44
30708;BME280;17458;48.958;8.284;2022-09-19T10:59:35;100874.66;;;18.28;53.98
30708;BME280;17458;48.958;8.284;2022-09-19T11:02:43;100865.28;;;18.45;55.60
30708;BME280;17458;48.958;8.284;2022-09-19T11:05:30;100874.47;;;18.20;55.38
30708;BME280;17458;48.958;8.284;2022-09-19T11:08:24;100870.91;;;18.21;54.74
30708;BME280;17458;48.958;8.284;2022-09-19T11:11:21;100873.25;;;18.42;55.58
30708;BME280;17458;48.958;8.284;2022-09-19T11:26:09;100863.63;;;18.17;56.40
30708;BME280;17458;48.958;8.284;2022-09-19T11:32:22;100856.50;;;18.19;55.63
30708;BME280;17458;48.958;8.284;2022-09-19T11:35:33;100860.38;;;17.97;55.53
30708;BME280;17458;48.958;8.284;2022-09-19T11:54:03;100841.91;;;19.15;52.55
30708;BME280;17458;48.958;8.284;2022-09-19T11:57:37;100847.06;;;19.04;53.14
30708;BME280;17458;48.958;8.284;2022-09-19T12:00:22;100837.28;;;18.71;54.95
30708;BME280;17458;48.958;8.284;2022-09-19T12:09:47;100836.03;;;18.93;52.02
30708;BME280;17458;48.958;8.284;2022-09-19T12:12:36;100828.03;;;18.60;53.71
30708;BME280;17458;48.958;8.284;2022-09-19T12:15:46;100824.69;;;18.70;54.11
30708;BME280;17458;48.958;8.284;2022-09-19T12:18:51;100818.31;;;18.65;55.63
30708;BME280;17458;48.958;8.284;2022-09-19T12:21:56;100818.00;;;18.55;56.24
30708;BME280;17458;48.958;8.284;2022-09-19T12:24:47;100811.50;;;18.80;56.30
30708;BME280;17458;48.958;8.284;2022-09-19T12:30:40;100807.00;;;19.18;55.17
30708;BME280;17458;48.958;8.284;2022-09-19T12:33:35;100809.28;;;19.01;53.95
30708;BME280;17458;48.958;8.284;2022-09-19T12:36:30;100808.88;;;17.81;54.45
30708;BME280;17458;48.958;8.284;2022-09-19T12:39:25;100811.97;;;17.34;56.75
30708;BME280;17458;48.958;8.284;2022-09-19T12:42:35;100809.28;;;16.78;59.67
30708;BME280;17458;48.958;8.284;2022-09-19T12:45:36;100815.31;;;16.71;61.16
30708;BME280;17458;48.958;8.284;2022-09-19T12:48:29;100804.22;;;17.45;60.61
30708;BME280;17458;48.958;8.284;2022-09-19T12:54:38;100805.56;;;17.61;58.91
30708;BME280;17458;48.958;8.284;2022-09-19T12:57:31;100813.16;;;16.87;61.23
30708;BME280;17458;48.958;8.284;2022-09-19T13:00:20;100800.50;;;17.10;61.37
30708;BME280;17458;48.958;8.284;2022-09-19T13:03:08;100798.81;;;17.74;59.63
30708;BME280;17458;48.958;8.284;2022-09-19T13:06:00;100797.56;;;18.27;60.79
30708;BME280;17458;48.958;8.284;2022-09-19T13:09:00;100784.91;;;18.93;57.31
30708;BME280;17458;48.958;8.284;2022-09-19T13:12:01;100788.13;;;19.18;56.17
30708;BME280;17458;48.958;8.284;2022-09-19T13:14:58;100786.06;;;19.04;56.57
30708;BME280;17458;48.958;8.284;2022-09-19T13:17:48;100779.34;;;19.26;57.64
30708;BME280;17458;48.958;8.284;2022-09-19T13:20:51;100785.81;;;19.34;55.87
30708;BME280;17458;48.958;8.284;2022-09-19T13:23:58;100781.84;;;19.58;54.77
30708;BME280;17458;48.958;8.284;2022-09-19T13:26:42;100782.59;;;19.96;53.69
30708;BME280;17458;48.958;8.284;2022-09-19T13:32:29;100792.66;;;20.54;50.06
30708;BME280;17458;48.958;8.284;2022-09-19T13:35:20;100795.25;;;20.46;49.82
30708;BME280;17458;48.958;8.284;2022-09-19T13:38:20;100787.59;;;20.24;50.48
30708;BME280;17458;48.958;8.284;2022-09-19T13:44:35;100781.25;;;20.19;51.54
30708;BME280;17458;48.958;8.284;2022-09-19T13:47:27;100773.81;;;20.07;52.38
30708;BME280;17458;48.958;8.284;2022-09-19T13:53:01;100764.28;;;19.78;52.91
30708;BME280;17458;48.958;8.284;2022-09-19T13:55:57;100770.66;;;19.83;50.86
30708;BME280;17458;48.958;8.284;2022-09-19T13:58:43;100768.63;;;20.18;49.82
30708;BME280;17458;48.958;8.284;2022-09-19T14:01:36;100771.66;;;20.36;51.45
30708;BME280;17458;48.958;8.284;2022-09-19T14:04:21;100762.41;;;20.24;49.60
30708;BME280;17458;48.958;8.284;2022-09-19T14:10:24;100759.47;;;19.20;50.35
30708;BME280;17458;48.958;8.284;2022-09-19T14:16:10;100757.56;;;19.56;51.60
30708;BME280;17458;48.958;8.284;2022-09-19T14:18:54;100761.91;;;19.96;50.84
30708;BME280;17458;48.958;8.284;2022-09-19T14:21:59;100755.41;;;19.83;49.54
30708;BME280;17458;48.958;8.284;2022-09-19T14:24:46;100761.84;;;19.93;47.93
30708;BME280;17458;48.958;8.284;2022-09-19T14:31:02;100765.63;;;20.01;47.33
30708;BME280;17458;48.958;8.284;2022-09-19T14:40:32;100758.59;;;19.21;49.41
30708;BME280;17458;48.958;8.284;2022-09-19T14:49:20;100771.44;;;18.93;50.19
30708;BME280;17458;48.958;8.284;2022-09-19T14:52:13;100766.28;;;18.65;51.38
30708;BME280;17458;48.958;8.284;2022-09-19T14:55:01;100774.84;;;18.86;51.95
30708;BME280;17458;48.958;8.284;2022-09-19T14:57:47;100762.03;;;18.40;52.76
30708;BME280;17458;48.958;8.284;2022-09-19T15:00:34;100763.44;;;18.59;52.14
30708;BME280;17458;48.958;8.284;2022-09-19T15:03:20;100757.22;;;18.61;51.15
30708;BME280;17458;48.958;8.284;2022-09-19T15:06:17;100758.47;;;18.41;51.43
30708;BME280;17458;48.958;8.284;2022-09-19T15:09:03;100764.25;;;18.20;50.95
30708;BME280;17458;48.958;8.284;2022-09-19T15:11:48;100760.25;;;18.40;50.63
30708;BME280;17458;48.958;8.284;2022-09-19T15:14:41;100763.06;;;17.76;51.49
30708;BME280;17458;48.958;8.284;2022-09-19T15:17:28;100758.66;;;17.48;51.90
30708;BME280;17458;48.958;8.284;2022-09-19T15:20:15;100763.06;;;17.46;51.88
30708;BME280;17458;48.958;8.284;2022-09-19T15:23:01;100753.50;;;17.56;52.58
30708;BME280;17458;48.958;8.284;2022-09-19T15:25:46;100758.97;;;17.90;51.97
30708;BME280;17458;48.958;8.284;2022-09-19T15:28:32;100760.00;;;17.95;53.23
30708;BME280;17458;48.958;8.284;2022-09-19T15:31:28;100757.59;;;18.06;51.99
30708;BME280;17458;48.958;8.284;2022-09-19T15:34:16;100752.19;;;18.40;51.14
30708;BME280;17458;48.958;8.284;2022-09-19T15:37:11;100750.69;;;18.16;51.32
30708;BME280;17458;48.958;8.284;2022-09-19T15:39:59;100751.13;;;17.99;51.87
30708;BME280;17458;48.958;8.284;2022-09-19T15:42:46;100751.19;;;18.01;52.51
30708;BME280;17458;48.958;8.284;2022-09-19T15:45:46;100753.50;;;18.20;51.92
30708;BME280;17458;48.958;8.284;2022-09-19T15:48:52;100743.13;;;18.01;53.29
30708;BME280;17458;48.958;8.284;2022-09-19T15:51:38;100750.28;;;18.00;51.85
30708;BME280;17458;48.958;8.284;2022-09-19T15:54:23;100744.75;;;18.29;51.97
30708;BME280;17458;48.958;8.284;2022-09-19T16:00:23;100743.72;;;18.58;50.86
30708;BME280;17458;48.958;8.284;2022-09-19T16:03:17;100742.84;;;18.59;51.46
30708;BME280;17458;48.958;8.284;2022-09-19T16:06:07;100746.91;;;18.80;51.87
30708;BME280;17458;48.958;8.284;2022-09-19T16:09:33;100748.31;;;19.03;50.93
30708;BME280;17458;48.958;8.284;2022-09-19T16:18:17;100755.34;;;18.95;51.35
30708;BME280;17458;48.958;8.284;2022-09-19T16:21:08;100756.94;;;18.87;50.63
30708;BME280;17458;48.958;8.284;2022-09-19T16:23:53;100751.06;;;18.67;49.38
30708;BME280;17458;48.958;8.284;2022-09-19T16:26:38;100748.13;;;18.58;49.32
30708;BME280;17458;48.958;8.284;2022-09-19T16:29:26;100761.47;;;18.52;51.15
30708;BME280;17458;48.958;8.284;2022-09-19T16:32:16;100755.81;;;18.77;51.48
30708;BME280;17458;48.958;8.284;2022-09-19T16:35:05;100750.94;;;18.61;52.32
30708;BME280;17458;48.958;8.284;2022-09-19T16:37:49;100759.66;;;18.16;51.01
30708;BME280;17458;48.958;8.284;2022-09-19T16:40:34;100740.03;;;18.56;51.88
30708;BME280;17458;48.958;8.284;2022-09-19T16:43:41;100755.00;;;18.45;52.04
30708;BME280;17458;48.958;8.284;2022-09-19T16:46:26;100751.03;;;18.29;49.74
30708;BME280;17458;48.958;8.284;2022-09-19T16:49:10;100742.91;;;18.28;48.35
30708;BME280;17458;48.958;8.284;2022-09-19T16:51:54;100751.50;;;18.13;48.27
30708;BME280;17458;48.958;8.284;2022-09-19T16:54:38;100747.44;;;17.94;49.26
30708;BME280;17458;48.958;8.284;2022-09-19T16:57:22;100744.16;;;17.73;49.41
30708;BME280;17458;48.958;8.284;2022-09-19T17:00:07;100758.50;;;17.74;49.78
30708;BME280;17458;48.958;8.284;2022-09-19T17:02:52;100758.34;;;17.67;49.52
30708;BME280;17458;48.958;8.284;2022-09-19T17:05:37;100763.88;;;17.44;50.35
30708;BME280;17458;48.958;8.284;2022-09-19T17:08:22;100764.69;;;17.40;50.42
30708;BME280;17458;48.958;8.284;2022-09-19T17:11:05;100766.38;;;17.36;51.04
30708;BME280;17458;48.958;8.284;2022-09-19T17:13:49;100767.59;;;17.17;51.56